GEMSL EGKB-EGKA
Flight info
| Callsign | GEMSL |
|---|---|
| Flight time | 0h 46m |
| Altitude | 2300 |
| Route | EGKN DCT EGLF DCT MID DCT GWC |
| Aircraft | PA28/L-SFG/C |
Departure
| Time | 2026-05-06 20:06 |
|---|---|
| Airport | London Biggin Hill Airport (EGKB) |
Arrival
| Time | 2026-05-06 20:52 |
|---|---|
| Airport | Brighton City Airport (EGKA) |
| Time | Latitude | Longitude | Altitude | Speed | Heading |
|---|---|---|---|---|---|
| 2026-05-06 19:55 | 51.32190 | 0.02848 | 593 ft | 0 kts | 239° |
| 2026-05-06 20:03 | 51.32195 | 0.02829 | 631 ft | 5 kts | 324° |
| 2026-05-06 20:03 | 51.32230 | 0.02799 | 629 ft | 9 kts | 339° |
| 2026-05-06 20:03 | 51.32267 | 0.02781 | 624 ft | 8 kts | 317° |
| 2026-05-06 20:04 | 51.32328 | 0.02717 | 617 ft | 12 kts | 6° |
| 2026-05-06 20:04 | 51.32346 | 0.02725 | 616 ft | 1 kts | 20° |
| 2026-05-06 20:04 | 51.32370 | 0.02735 | 615 ft | 6 kts | 7° |
| 2026-05-06 20:04 | 51.32420 | 0.02720 | 614 ft | 10 kts | 17° |
| 2026-05-06 20:05 | 51.32506 | 0.02789 | 612 ft | 24 kts | 25° |
| 2026-05-06 20:05 | 51.32833 | 0.03031 | 619 ft | 74 kts | 23° |
| 2026-05-06 20:05 | 51.33305 | 0.03373 | 861 ft | 72 kts | 24° |
| 2026-05-06 20:05 | 51.33765 | 0.03689 | 1132 ft | 73 kts | 21° |
| 2026-05-06 20:06 | 51.34234 | 0.04018 | 1441 ft | 70 kts | 22° |
| 2026-05-06 20:06 | 51.34717 | 0.03834 | 1623 ft | 88 kts | 321° |
| 2026-05-06 20:06 | 51.34810 | 0.02829 | 1807 ft | 106 kts | 250° |
| 2026-05-06 20:06 | 51.34205 | 0.02091 | 2004 ft | 111 kts | 210° |
| 2026-05-06 20:07 | 51.33507 | 0.01526 | 2141 ft | 116 kts | 208° |
| 2026-05-06 20:07 | 51.32766 | 0.00969 | 2199 ft | 121 kts | 207° |
| 2026-05-06 20:07 | 51.32114 | 0.00155 | 2250 ft | 117 kts | 240° |
| 2026-05-06 20:07 | 51.31910 | -0.01085 | 2193 ft | 117 kts | 272° |
| 2026-05-06 20:08 | 51.31878 | -0.02392 | 2170 ft | 118 kts | 274° |
| 2026-05-06 20:08 | 51.31814 | -0.03721 | 2114 ft | 123 kts | 269° |
| 2026-05-06 20:08 | 51.31672 | -0.05089 | 2064 ft | 126 kts | 263° |
| 2026-05-06 20:08 | 51.31464 | -0.06434 | 2054 ft | 124 kts | 260° |
| 2026-05-06 20:09 | 51.31221 | -0.07738 | 2017 ft | 121 kts | 255° |
| 2026-05-06 20:09 | 51.30969 | -0.08541 | 1992 ft | 122 kts | 242° |
| 2026-05-06 20:09 | 51.30385 | -0.09554 | 1967 ft | 121 kts | 228° |
| 2026-05-06 20:09 | 51.29762 | -0.10448 | 1957 ft | 122 kts | 222° |
| 2026-05-06 20:10 | 51.29106 | -0.11282 | 1971 ft | 120 kts | 220° |
| 2026-05-06 20:10 | 51.28485 | -0.12151 | 1977 ft | 117 kts | 234° |
| 2026-05-06 20:10 | 51.28078 | -0.13244 | 2041 ft | 114 kts | 246° |
| 2026-05-06 20:10 | 51.27637 | -0.14301 | 2062 ft | 117 kts | 236° |
| 2026-05-06 20:11 | 51.27090 | -0.15280 | 2019 ft | 120 kts | 229° |
| 2026-05-06 20:11 | 51.26485 | -0.16219 | 1968 ft | 121 kts | 231° |
| 2026-05-06 20:11 | 51.26011 | -0.17294 | 1940 ft | 119 kts | 243° |
| 2026-05-06 20:11 | 51.25614 | -0.18489 | 1853 ft | 124 kts | 248° |
| 2026-05-06 20:12 | 51.25261 | -0.19722 | 1728 ft | 121 kts | 251° |
| 2026-05-06 20:12 | 51.24939 | -0.20948 | 1565 ft | 119 kts | 251° |
| 2026-05-06 20:12 | 51.24605 | -0.22151 | 1460 ft | 118 kts | 250° |
| 2026-05-06 20:12 | 51.24208 | -0.23294 | 1429 ft | 118 kts | 237° |
| 2026-05-06 20:13 | 51.23542 | -0.24039 | 1399 ft | 120 kts | 197° |
| 2026-05-06 20:13 | 51.22742 | -0.23864 | 1355 ft | 118 kts | 147° |
| 2026-05-06 20:13 | 51.22081 | -0.23122 | 1346 ft | 115 kts | 141° |
| 2026-05-06 20:13 | 51.21330 | -0.22702 | 1350 ft | 115 kts | 171° |
| 2026-05-06 20:14 | 51.20530 | -0.22591 | 1342 ft | 116 kts | 171° |
| 2026-05-06 20:14 | 51.19735 | -0.22389 | 1412 ft | 115 kts | 165° |
| 2026-05-06 20:14 | 51.18956 | -0.22035 | 1422 ft | 118 kts | 160° |
| 2026-05-06 20:14 | 51.18172 | -0.21621 | 1412 ft | 119 kts | 160° |
| 2026-05-06 20:15 | 51.17365 | -0.21298 | 1400 ft | 120 kts | 165° |
| 2026-05-06 20:15 | 51.16539 | -0.21037 | 1385 ft | 122 kts | 167° |
| 2026-05-06 20:15 | 51.15699 | -0.20805 | 1356 ft | 123 kts | 169° |
| 2026-05-06 20:15 | 51.14864 | -0.20584 | 1344 ft | 123 kts | 168° |
| 2026-05-06 20:16 | 51.14026 | -0.20361 | 1361 ft | 121 kts | 168° |
| 2026-05-06 20:16 | 51.13190 | -0.20160 | 1350 ft | 122 kts | 168° |
| 2026-05-06 20:16 | 51.12353 | -0.19959 | 1354 ft | 121 kts | 168° |
| 2026-05-06 20:16 | 51.11525 | -0.19732 | 1355 ft | 121 kts | 166° |
| 2026-05-06 20:17 | 51.10709 | -0.19503 | 1401 ft | 117 kts | 168° |
| 2026-05-06 20:17 | 51.09895 | -0.19327 | 1421 ft | 119 kts | 169° |
| 2026-05-06 20:17 | 51.09083 | -0.19148 | 1475 ft | 116 kts | 168° |
| 2026-05-06 20:17 | 51.08273 | -0.18968 | 1514 ft | 117 kts | 171° |
| 2026-05-06 20:18 | 51.07452 | -0.18819 | 1515 ft | 120 kts | 169° |
| 2026-05-06 20:18 | 51.06617 | -0.18625 | 1506 ft | 120 kts | 169° |
| 2026-05-06 20:18 | 51.05808 | -0.18436 | 1511 ft | 121 kts | 168° |
| 2026-05-06 20:18 | 51.04975 | -0.18219 | 1480 ft | 121 kts | 167° |
| 2026-05-06 20:19 | 51.04142 | -0.18012 | 1488 ft | 120 kts | 169° |
| 2026-05-06 20:19 | 51.03328 | -0.17781 | 1508 ft | 119 kts | 167° |
| 2026-05-06 20:19 | 51.02522 | -0.17539 | 1522 ft | 118 kts | 166° |
| 2026-05-06 20:19 | 51.01717 | -0.17284 | 1546 ft | 118 kts | 165° |
| 2026-05-06 20:20 | 51.00909 | -0.17042 | 1533 ft | 119 kts | 166° |
| 2026-05-06 20:20 | 51.00098 | -0.16772 | 1559 ft | 118 kts | 165° |
| 2026-05-06 20:20 | 50.99309 | -0.16465 | 1572 ft | 117 kts | 160° |
| 2026-05-06 20:20 | 50.98521 | -0.16103 | 1557 ft | 119 kts | 161° |
| 2026-05-06 20:21 | 50.97721 | -0.15734 | 1516 ft | 121 kts | 160° |
| 2026-05-06 20:21 | 50.96921 | -0.15306 | 1485 ft | 121 kts | 159° |
| 2026-05-06 20:21 | 50.96109 | -0.14989 | 1498 ft | 120 kts | 165° |
| 2026-05-06 20:21 | 50.95284 | -0.14709 | 1481 ft | 122 kts | 165° |
| 2026-05-06 20:22 | 50.94458 | -0.14408 | 1468 ft | 122 kts | 163° |
| 2026-05-06 20:22 | 50.93648 | -0.14060 | 1463 ft | 120 kts | 159° |
| 2026-05-06 20:22 | 50.92852 | -0.13659 | 1457 ft | 120 kts | 160° |
| 2026-05-06 20:22 | 50.92052 | -0.13312 | 1457 ft | 119 kts | 161° |
| 2026-05-06 20:23 | 50.91252 | -0.12953 | 1455 ft | 120 kts | 161° |
| 2026-05-06 20:23 | 50.90450 | -0.12586 | 1459 ft | 121 kts | 161° |
| 2026-05-06 20:23 | 50.89634 | -0.12217 | 1460 ft | 122 kts | 161° |
| 2026-05-06 20:23 | 50.88823 | -0.11834 | 1464 ft | 121 kts | 161° |
| 2026-05-06 20:24 | 50.88014 | -0.11468 | 1461 ft | 120 kts | 161° |
| 2026-05-06 20:24 | 50.87215 | -0.11108 | 1455 ft | 120 kts | 161° |
| 2026-05-06 20:24 | 50.86417 | -0.10764 | 1452 ft | 118 kts | 162° |
| 2026-05-06 20:24 | 50.85634 | -0.10404 | 1454 ft | 118 kts | 160° |
| 2026-05-06 20:25 | 50.84831 | -0.10060 | 1455 ft | 120 kts | 161° |
| 2026-05-06 20:25 | 50.84037 | -0.09683 | 1426 ft | 119 kts | 161° |
| 2026-05-06 20:25 | 50.83240 | -0.09335 | 1426 ft | 119 kts | 161° |
| 2026-05-06 20:25 | 50.82453 | -0.08978 | 1429 ft | 117 kts | 161° |
| 2026-05-06 20:26 | 50.81654 | -0.08615 | 1432 ft | 122 kts | 161° |
| 2026-05-06 20:26 | 50.80831 | -0.08272 | 1433 ft | 123 kts | 161° |
| 2026-05-06 20:26 | 50.80008 | -0.07923 | 1438 ft | 122 kts | 161° |
| 2026-05-06 20:26 | 50.79185 | -0.07576 | 1436 ft | 122 kts | 161° |
| 2026-05-06 20:27 | 50.78421 | -0.07067 | 1365 ft | 119 kts | 130° |
| 2026-05-06 20:27 | 50.78318 | -0.05963 | 1359 ft | 103 kts | 59° |
| 2026-05-06 20:27 | 50.78925 | -0.05520 | 1334 ft | 101 kts | 358° |
| 2026-05-06 20:27 | 50.79586 | -0.05630 | 1428 ft | 92 kts | 4° |
| 2026-05-06 20:28 | 50.80150 | -0.05244 | 1613 ft | 90 kts | 39° |
| 2026-05-06 20:28 | 50.80502 | -0.04413 | 1833 ft | 90 kts | 56° |
| 2026-05-06 20:28 | 50.80830 | -0.03561 | 1963 ft | 94 kts | 53° |
| 2026-05-06 20:28 | 50.81205 | -0.02693 | 1991 ft | 97 kts | 50° |
| 2026-05-06 20:29 | 50.81624 | -0.01874 | 2047 ft | 96 kts | 46° |
| 2026-05-06 20:29 | 50.82057 | -0.01074 | 2088 ft | 94 kts | 43° |
| 2026-05-06 20:29 | 50.82519 | -0.00325 | 2116 ft | 95 kts | 41° |
| 2026-05-06 20:29 | 50.83001 | 0.00349 | 2201 ft | 91 kts | 38° |
| 2026-05-06 20:30 | 50.83510 | 0.00951 | 2210 ft | 92 kts | 33° |
| 2026-05-06 20:30 | 50.84660 | 0.01917 | 2221 ft | 98 kts | 22° |
| 2026-05-06 20:30 | 50.85295 | 0.02249 | 2207 ft | 96 kts | 14° |
| 2026-05-06 20:31 | 50.85943 | 0.02527 | 2165 ft | 97 kts | 14° |
| 2026-05-06 20:31 | 50.86612 | 0.02579 | 2128 ft | 99 kts | 355° |
| 2026-05-06 20:31 | 50.87203 | 0.02010 | 2099 ft | 105 kts | 316° |
| 2026-05-06 20:31 | 50.87391 | 0.00852 | 2093 ft | 116 kts | 275° |
| 2026-05-06 20:32 | 50.87127 | -0.00367 | 2091 ft | 123 kts | 240° |
| 2026-05-06 20:32 | 50.86594 | -0.01441 | 2022 ft | 123 kts | 242° |
| 2026-05-06 20:32 | 50.86187 | -0.02617 | 2055 ft | 120 kts | 246° |
| 2026-05-06 20:32 | 50.85873 | -0.03832 | 2038 ft | 119 kts | 257° |
| 2026-05-06 20:33 | 50.85650 | -0.05098 | 2019 ft | 120 kts | 261° |
| 2026-05-06 20:33 | 50.85403 | -0.06357 | 2020 ft | 120 kts | 253° |
| 2026-05-06 20:33 | 50.85114 | -0.07596 | 2027 ft | 120 kts | 257° |
| 2026-05-06 20:33 | 50.84832 | -0.08827 | 2030 ft | 119 kts | 251° |
| 2026-05-06 20:34 | 50.84388 | -0.09971 | 1972 ft | 121 kts | 243° |
| 2026-05-06 20:34 | 50.84193 | -0.11204 | 1946 ft | 114 kts | 277° |
| 2026-05-06 20:34 | 50.84265 | -0.12426 | 1980 ft | 111 kts | 281° |
| 2026-05-06 20:34 | 50.84312 | -0.13672 | 1969 ft | 116 kts | 280° |
| 2026-05-06 20:35 | 50.84324 | -0.14944 | 1990 ft | 115 kts | 276° |
| 2026-05-06 20:35 | 50.84343 | -0.16213 | 2008 ft | 116 kts | 281° |
| 2026-05-06 20:35 | 50.84383 | -0.17489 | 1989 ft | 117 kts | 278° |
| 2026-05-06 20:35 | 50.84404 | -0.18778 | 1968 ft | 117 kts | 278° |
| 2026-05-06 20:36 | 50.84531 | -0.20030 | 1926 ft | 114 kts | 293° |
| 2026-05-06 20:36 | 50.84830 | -0.21171 | 1910 ft | 111 kts | 302° |
| 2026-05-06 20:36 | 50.85156 | -0.22268 | 1924 ft | 109 kts | 303° |
| 2026-05-06 20:36 | 50.85467 | -0.23370 | 1923 ft | 110 kts | 302° |
| 2026-05-06 20:37 | 50.85766 | -0.24490 | 1953 ft | 111 kts | 298° |
| 2026-05-06 20:37 | 50.86032 | -0.25639 | 1992 ft | 111 kts | 297° |
| 2026-05-06 20:37 | 50.86288 | -0.26801 | 2013 ft | 112 kts | 297° |
| 2026-05-06 20:37 | 50.86541 | -0.27953 | 2014 ft | 110 kts | 295° |
| 2026-05-06 20:38 | 50.86814 | -0.29090 | 1967 ft | 110 kts | 301° |
| 2026-05-06 20:38 | 50.87130 | -0.30196 | 1943 ft | 111 kts | 301° |
| 2026-05-06 20:38 | 50.87447 | -0.31321 | 1906 ft | 110 kts | 303° |
| 2026-05-06 20:38 | 50.87860 | -0.32327 | 1886 ft | 108 kts | 314° |
| 2026-05-06 20:39 | 50.88299 | -0.33283 | 1879 ft | 109 kts | 311° |
| 2026-05-06 20:39 | 50.88690 | -0.34304 | 1897 ft | 108 kts | 307° |
| 2026-05-06 20:39 | 50.89046 | -0.35335 | 1971 ft | 105 kts | 306° |
| 2026-05-06 20:39 | 50.89376 | -0.36367 | 1990 ft | 109 kts | 304° |
| 2026-05-06 20:40 | 50.89741 | -0.37400 | 2060 ft | 106 kts | 308° |
| 2026-05-06 20:40 | 50.90103 | -0.38426 | 2162 ft | 107 kts | 308° |
| 2026-05-06 20:40 | 50.90461 | -0.39468 | 2179 ft | 110 kts | 306° |
| 2026-05-06 20:40 | 50.90890 | -0.40453 | 2189 ft | 107 kts | 315° |
| 2026-05-06 20:41 | 50.91314 | -0.41422 | 2166 ft | 110 kts | 310° |
| 2026-05-06 20:41 | 50.91376 | -0.42689 | 2077 ft | 125 kts | 260° |
| 2026-05-06 20:41 | 50.90824 | -0.43728 | 2121 ft | 127 kts | 212° |
| 2026-05-06 20:41 | 50.89966 | -0.44009 | 2116 ft | 128 kts | 174° |
| 2026-05-06 20:42 | 50.89097 | -0.43819 | 2168 ft | 123 kts | 166° |
| 2026-05-06 20:42 | 50.88264 | -0.43578 | 2169 ft | 121 kts | 164° |
| 2026-05-06 20:42 | 50.87413 | -0.43276 | 2071 ft | 129 kts | 163° |
| 2026-05-06 20:42 | 50.86559 | -0.42940 | 2057 ft | 125 kts | 160° |
| 2026-05-06 20:43 | 50.85709 | -0.42625 | 2022 ft | 127 kts | 167° |
| 2026-05-06 20:43 | 50.84824 | -0.42851 | 1946 ft | 133 kts | 206° |
| 2026-05-06 20:43 | 50.84186 | -0.43867 | 1890 ft | 129 kts | 247° |
| 2026-05-06 20:43 | 50.83869 | -0.45139 | 1911 ft | 122 kts | 256° |
| 2026-05-06 20:44 | 50.83566 | -0.46385 | 1925 ft | 121 kts | 254° |
| 2026-05-06 20:44 | 50.83251 | -0.47622 | 1923 ft | 122 kts | 254° |
| 2026-05-06 20:44 | 50.82930 | -0.48863 | 1939 ft | 122 kts | 256° |
| 2026-05-06 20:44 | 50.82607 | -0.50115 | 1940 ft | 123 kts | 254° |
| 2026-05-06 20:45 | 50.82265 | -0.51361 | 1906 ft | 124 kts | 253° |
| 2026-05-06 20:45 | 50.81879 | -0.52559 | 1953 ft | 121 kts | 237° |
| 2026-05-06 20:45 | 50.81147 | -0.53152 | 1993 ft | 121 kts | 180° |
| 2026-05-06 20:45 | 50.80474 | -0.52600 | 2029 ft | 108 kts | 115° |
| 2026-05-06 20:46 | 50.80398 | -0.51478 | 2016 ft | 102 kts | 79° |
| 2026-05-06 20:46 | 50.80472 | -0.50373 | 2048 ft | 101 kts | 76° |
| 2026-05-06 20:46 | 50.80529 | -0.49275 | 2107 ft | 98 kts | 81° |
| 2026-05-06 20:46 | 50.80474 | -0.48171 | 2069 ft | 108 kts | 100° |
| 2026-05-06 20:47 | 50.80182 | -0.47131 | 2041 ft | 99 kts | 103° |
| 2026-05-06 20:47 | 50.80039 | -0.46068 | 1946 ft | 100 kts | 88° |
| 2026-05-06 20:47 | 50.80008 | -0.44985 | 1913 ft | 97 kts | 81° |
| 2026-05-06 20:47 | 50.80048 | -0.43925 | 1874 ft | 98 kts | 78° |
| 2026-05-06 20:48 | 50.80133 | -0.42890 | 1860 ft | 95 kts | 76° |
| 2026-05-06 20:48 | 50.80102 | -0.41823 | 1829 ft | 97 kts | 86° |
| 2026-05-06 20:48 | 50.80042 | -0.40789 | 1813 ft | 94 kts | 86° |
| 2026-05-06 20:48 | 50.79997 | -0.39763 | 1722 ft | 93 kts | 86° |
| 2026-05-06 20:49 | 50.79957 | -0.38733 | 1619 ft | 93 kts | 84° |
| 2026-05-06 20:49 | 50.79953 | -0.37703 | 1504 ft | 94 kts | 82° |
| 2026-05-06 20:49 | 50.79945 | -0.36644 | 1348 ft | 98 kts | 83° |
| 2026-05-06 20:49 | 50.79921 | -0.35587 | 1276 ft | 96 kts | 83° |
| 2026-05-06 20:50 | 50.79917 | -0.34540 | 1156 ft | 95 kts | 82° |
| 2026-05-06 20:50 | 50.79943 | -0.33538 | 1039 ft | 89 kts | 77° |
| 2026-05-06 20:50 | 50.80069 | -0.32599 | 927 ft | 85 kts | 59° |
| 2026-05-06 20:50 | 50.80424 | -0.31887 | 811 ft | 81 kts | 37° |
| 2026-05-06 20:51 | 50.80881 | -0.31413 | 661 ft | 78 kts | 25° |
| 2026-05-06 20:51 | 50.81348 | -0.31063 | 492 ft | 68 kts | 18° |
| 2026-05-06 20:51 | 50.81771 | -0.30814 | 381 ft | 64 kts | 14° |
| 2026-05-06 20:51 | 50.82184 | -0.30582 | 281 ft | 61 kts | 19° |
| 2026-05-06 20:52 | 50.82583 | -0.30337 | 196 ft | 63 kts | 17° |
| 2026-05-06 20:52 | 50.82991 | -0.30086 | 97 ft | 60 kts | 15° |
| 2026-05-06 20:52 | 50.83360 | -0.29851 | 14 ft | 51 kts | 14° |
| 2026-05-06 20:52 | 50.83661 | -0.29672 | 11 ft | 41 kts | 24° |
| 2026-05-06 20:53 | 50.83868 | -0.29539 | 11 ft | 19 kts | 21° |
| 2026-05-06 20:53 | 50.83961 | -0.29539 | 11 ft | 10 kts | 18° |
| 2026-05-06 20:53 | 50.83901 | -0.29514 | 11 ft | 29 kts | 201° |
| 2026-05-06 20:53 | 50.83528 | -0.29746 | 30 ft | 82 kts | 202° |
| 2026-05-06 20:54 | 50.82927 | -0.30042 | 229 ft | 90 kts | 205° |
| 2026-05-06 20:54 | 50.82333 | -0.30349 | 501 ft | 89 kts | 198° |
| 2026-05-06 20:54 | 50.81781 | -0.30455 | 730 ft | 90 kts | 169° |
| 2026-05-06 20:54 | 50.81186 | -0.30278 | 990 ft | 89 kts | 159° |
| 2026-05-06 20:55 | 50.80591 | -0.29951 | 1284 ft | 90 kts | 151° |
| 2026-05-06 20:55 | 50.80037 | -0.29557 | 1592 ft | 84 kts | 143° |
| 2026-05-06 20:55 | 50.79566 | -0.29073 | 1856 ft | 82 kts | 134° |
| 2026-05-06 20:55 | 50.79090 | -0.28561 | 2091 ft | 84 kts | 135° |
| 2026-05-06 20:56 | 50.78618 | -0.28030 | 2358 ft | 80 kts | 130° |
| 2026-05-06 20:56 | 50.78190 | -0.27476 | 2615 ft | 78 kts | 127° |
| 2026-05-06 20:56 | 50.77767 | -0.26889 | 2822 ft | 83 kts | 126° |
| 2026-05-06 20:56 | 50.77528 | -0.26431 | 2952 ft | 81 kts | 127° |
| 2026-05-06 20:57 | 50.77200 | -0.25682 | 3170 ft | 81 kts | 112° |
| 2026-05-06 20:57 | 50.76916 | -0.24891 | 3374 ft | 83 kts | 109° |
| 2026-05-06 20:57 | 50.76667 | -0.24057 | 3564 ft | 84 kts | 101° |
| 2026-05-06 20:57 | 50.76478 | -0.23188 | 3777 ft | 82 kts | 97° |
| 2026-05-06 20:58 | 50.76258 | -0.22317 | 3961 ft | 87 kts | 105° |
| 2026-05-06 20:58 | 50.75976 | -0.21466 | 4165 ft | 88 kts | 107° |
| 2026-05-06 20:58 | 50.75695 | -0.20587 | 4359 ft | 91 kts | 106° |
| 2026-05-06 20:58 | 50.75420 | -0.19686 | 4566 ft | 91 kts | 107° |
| 2026-05-06 20:59 | 50.75141 | -0.18777 | 4759 ft | 93 kts | 106° |
| 2026-05-06 20:59 | 50.74868 | -0.17854 | 4940 ft | 94 kts | 106° |
| 2026-05-06 20:59 | 50.74582 | -0.16820 | 4961 ft | 110 kts | 105° |
| 2026-05-06 20:59 | 50.74312 | -0.15656 | 4992 ft | 113 kts | 103° |
| 2026-05-06 21:00 | 50.74060 | -0.14467 | 4964 ft | 116 kts | 99° |
| 2026-05-06 21:00 | 50.73871 | -0.13238 | 4948 ft | 116 kts | 95° |
| 2026-05-06 21:00 | 50.73730 | -0.11998 | 4935 ft | 115 kts | 90° |
| 2026-05-06 21:00 | 50.73651 | -0.10752 | 4929 ft | 112 kts | 88° |
| 2026-05-06 21:01 | 50.73577 | -0.09698 | 4944 ft | 79 kts | 89° |
| 2026-05-06 21:01 | 50.73503 | -0.08961 | 4858 ft | 58 kts | 80° |
| 2026-05-06 21:01 | 50.73490 | -0.08118 | 4742 ft | 88 kts | 82° |
| 2026-05-06 21:01 | 50.73448 | -0.07185 | 4965 ft | 83 kts | 86° |
| 2026-05-06 21:02 | 50.73419 | -0.06220 | 5017 ft | 93 kts | 86° |
| 2026-05-06 21:02 | 50.73358 | -0.05159 | 5021 ft | 102 kts | 87° |
| 2026-05-06 21:02 | 50.73318 | -0.04028 | 5019 ft | 108 kts | 83° |
| 2026-05-06 21:02 | 50.73296 | -0.02834 | 5020 ft | 111 kts | 83° |
| 2026-05-06 21:03 | 50.73291 | -0.01614 | 5004 ft | 112 kts | 82° |
| 2026-05-06 21:03 | 50.73275 | -0.00612 | 5475 ft | 70 kts | 77° |
| 2026-05-06 21:03 | 50.73366 | 0.00144 | 5367 ft | 91 kts | 58° |
| 2026-05-06 21:03 | 50.73593 | 0.01104 | 5424 ft | 96 kts | 58° |
| 2026-05-06 21:04 | 50.73850 | 0.02031 | 5490 ft | 79 kts | 50° |
| 2026-05-06 21:04 | 50.74224 | 0.02445 | 5391 ft | 66 kts | 349° |
| 2026-05-06 21:04 | 50.74337 | 0.01836 | 5218 ft | 79 kts | 241° |
| 2026-05-06 21:04 | 50.73854 | 0.01985 | 4982 ft | 75 kts | 104° |
| 2026-05-06 21:05 | 50.73978 | 0.02461 | 4786 ft | 43 kts | 18° |
| 2026-05-06 21:05 | 50.74333 | 0.02727 | 4724 ft | 59 kts | 11° |
| 2026-05-06 21:05 | 50.74705 | 0.02885 | 4724 ft | 46 kts | 4° |
| 2026-05-06 21:05 | 50.74955 | 0.02764 | 4500 ft | 54 kts | 301° |
| 2026-05-06 21:06 | 50.74984 | 0.02077 | 4294 ft | 69 kts | 272° |
| 2026-05-06 21:06 | 50.74843 | 0.01345 | 4114 ft | 67 kts | 279° |
| 2026-05-06 21:06 | 50.74828 | 0.00555 | 4172 ft | 78 kts | 276° |
| 2026-05-06 21:06 | 50.74764 | -0.00434 | 4121 ft | 98 kts | 281° |
| 2026-05-06 21:07 | 50.74790 | -0.01567 | 4114 ft | 102 kts | 282° |
| 2026-05-06 21:07 | 50.74829 | -0.02696 | 4137 ft | 104 kts | 282° |
| 2026-05-06 21:07 | 50.74868 | -0.03795 | 4132 ft | 101 kts | 281° |
| 2026-05-06 21:07 | 50.74900 | -0.04926 | 4136 ft | 105 kts | 281° |
| 2026-05-06 21:08 | 50.74933 | -0.06098 | 4139 ft | 108 kts | 281° |
| 2026-05-06 21:08 | 50.74964 | -0.07291 | 4142 ft | 109 kts | 281° |
| 2026-05-06 21:08 | 50.74997 | -0.08487 | 4145 ft | 109 kts | 281° |
| 2026-05-06 21:08 | 50.75031 | -0.09685 | 4146 ft | 109 kts | 281° |
| 2026-05-06 21:09 | 50.75069 | -0.10882 | 4149 ft | 109 kts | 281° |
| 2026-05-06 21:09 | 50.75103 | -0.12093 | 4147 ft | 111 kts | 281° |
| 2026-05-06 21:09 | 50.75135 | -0.13309 | 4149 ft | 111 kts | 281° |
| 2026-05-06 21:09 | 50.75170 | -0.14522 | 4148 ft | 111 kts | 281° |
| 2026-05-06 21:10 | 50.75196 | -0.15733 | 4148 ft | 110 kts | 281° |
| 2026-05-06 21:10 | 50.75220 | -0.16928 | 4145 ft | 109 kts | 281° |
| 2026-05-06 21:10 | 50.75245 | -0.18121 | 4145 ft | 109 kts | 281° |
| 2026-05-06 21:10 | 50.75275 | -0.19291 | 4117 ft | 103 kts | 281° |
| 2026-05-06 21:11 | 50.75312 | -0.20484 | 3790 ft | 113 kts | 281° |
| 2026-05-06 21:11 | 50.75348 | -0.21689 | 3621 ft | 108 kts | 281° |
| 2026-05-06 21:11 | 50.75387 | -0.22892 | 3382 ft | 110 kts | 281° |
| 2026-05-06 21:11 | 50.75417 | -0.24090 | 3180 ft | 108 kts | 281° |
| 2026-05-06 21:12 | 50.75449 | -0.25291 | 2930 ft | 111 kts | 281° |
| 2026-05-06 21:12 | 50.75522 | -0.26496 | 2682 ft | 110 kts | 289° |
| 2026-05-06 21:12 | 50.75694 | -0.27688 | 2386 ft | 112 kts | 300° |
| 2026-05-06 21:12 | 50.76052 | -0.28740 | 2197 ft | 104 kts | 306° |
| 2026-05-06 21:13 | 50.76381 | -0.29768 | 1948 ft | 107 kts | 306° |
| 2026-05-06 21:13 | 50.76789 | -0.30706 | 1747 ft | 101 kts | 316° |
| 2026-05-06 21:13 | 50.77207 | -0.31589 | 1548 ft | 99 kts | 317° |
| 2026-05-06 21:13 | 50.77802 | -0.32070 | 1284 ft | 96 kts | 345° |
| 2026-05-06 21:14 | 50.78402 | -0.32353 | 1056 ft | 91 kts | 358° |
| 2026-05-06 21:14 | 50.79070 | -0.32328 | 770 ft | 96 kts | 6° |
| 2026-05-06 21:14 | 50.79706 | -0.32132 | 658 ft | 90 kts | 15° |
| 2026-05-06 21:14 | 50.80271 | -0.31770 | 594 ft | 82 kts | 20° |
| 2026-05-06 21:15 | 50.80799 | -0.31438 | 535 ft | 82 kts | 16° |
| 2026-05-06 21:15 | 50.81313 | -0.31129 | 471 ft | 77 kts | 17° |
| 2026-05-06 21:15 | 50.81775 | -0.30868 | 368 ft | 62 kts | 18° |
| 2026-05-06 21:15 | 50.82152 | -0.30607 | 267 ft | 58 kts | 16° |
| 2026-05-06 21:16 | 50.82537 | -0.30374 | 189 ft | 62 kts | 14° |
| 2026-05-06 21:16 | 50.82941 | -0.30115 | 110 ft | 62 kts | 13° |
| 2026-05-06 21:16 | 50.83329 | -0.29863 | 19 ft | 55 kts | 11° |
| 2026-05-06 21:16 | 50.83631 | -0.29685 | 11 ft | 38 kts | 22° |
| 2026-05-06 21:17 | 50.83739 | -0.29613 | 11 ft | 0 kts | 22° |